Elsah, Illinois
Current Conditions -  °F | °C
As of 7:54 PM on Friday 21 Nov 2014 (Local Time) from KSET Reporting Station
Overcast Overcast  
Wind Chill: 33°   Ceiling: 2300
Heat Index: 40°   Visibility: 10mi
Dew Point: 24°   Wind: 12mph
Humidity: 53%   Direction: 130°SE
Pressure: 30.25"   Gusts: NA
Location:  38.96°N, 90.36°W
Report Text: KSET 220154Z AUTO 13010KT 10SM OVC023 04/M04 A3025 RMK AO2 SLP247 T00441044
Loading
Personal Weather Stations






























Interactive Weather Map New forecast layout! Learn more

10-Day Weather Forecast

Advertisements
Track Severe Weather on mobile